Time;durP1;ratioP1;P1;durP2;ratioP2;P2;SDS_P1;SDS_P2;PMS_P1;PMS_P2;Temp;Humidity;BMP_temperature;BMP_pressure;BME280_temperature;BME280_humidity;BME280_pressure;Samples;Min_cycle;Max_cycle;Signal;HPM_P1;HPM_P2
2023/01/30 00:01:02;;;;;;;;;;;;;;;3.06;79.54;100286.42;107310;1257;60822;-83
2023/01/30 00:03:28;;;;;;;;;;;;;;;3.05;79.70;100290.91;108857;1254;71252;-83
2023/01/30 00:05:55;;;;;;;;;;;;;;;3.05;79.48;100285.14;108193;1260;124396;-83
2023/01/30 00:08:22;;;;;;;;;;;;;;;3.06;79.61;100281.23;107375;1257;59317;-82
2023/01/30 00:10:49;;;;;;;;;;;;;;;3.06;79.70;100280.36;107254;1254;125026;-83
2023/01/30 00:13:15;;;;;;;;;;;;;;;3.09;79.61;100278.58;107721;1254;61359;-83
2023/01/30 00:15:41;;;;;;;;;;;;;;;3.10;79.55;100269.29;107637;1260;61304;-83
2023/01/30 00:18:08;;;;;;;;;;;;;;;3.09;79.55;100260.41;107393;1262;125049;-83
2023/01/30 00:20:34;;;;;;;;;;;;;;;3.10;79.54;100257.13;107619;1254;61381;-82
2023/01/30 00:23:00;;;;;;;;;;;;;;;3.08;79.40;100250.30;107610;1255;123890;-83
2023/01/30 00:25:32;;;;;;;;;;;;;;;3.09;79.42;100249.83;108133;1254;60987;-84
2023/01/30 00:28:00;;;;;;;;;;;;;;;3.07;79.39;100250.27;107607;1254;124766;-82
2023/01/30 00:30:28;;;;;;;;;;;;;;;3.07;79.30;100253.02;107436;1261;61284;-84
2023/01/30 00:32:55;;;;;;;;;;;;;;;3.08;79.45;100241.64;108058;1257;60841;-84
2023/01/30 00:35:27;;;;;;;;;;;;;;;3.07;79.23;100236.17;107292;1260;124628;-83
2023/01/30 00:37:56;;;;;;;;;;;;;;;3.04;79.30;100229.51;107381;1260;66801;-83
2023/01/30 00:40:24;;;;;;;;;;;;;;;3.05;79.22;100217.74;107283;1256;125722;-83
2023/01/30 00:48:20;;;;;;;;;;;;;;;3.09;79.35;100189.16;107554;1261;75191;-83
2023/01/30 00:50:48;;;;;;;;;;;;;;;3.08;79.31;100181.99;107685;1258;61204;-83
2023/01/30 00:53:14;;;;;;;;;;;;;;;3.06;79.26;100179.14;107644;1260;124536;-84
2023/01/30 00:55:42;;;;;;;;;;;;;;;3.04;79.38;100167.59;108971;1259;59826;-83
2023/01/30 00:58:08;;;;;;;;;;;;;;;3.03;79.35;100161.50;107791;1254;125475;-83
2023/01/30 01:00:34;;;;;;;;;;;;;;;3.02;79.29;100154.34;107574;1260;63766;-82
2023/01/30 01:03:01;;;;;;;;;;;;;;;3.01;79.28;100153.95;107503;1257;60405;-83
2023/01/30 01:05:27;;;;;;;;;;;;;;;3.02;79.28;100151.90;107358;1257;124522;-83
2023/01/30 01:07:55;;;;;;;;;;;;;;;3.04;79.37;100142.27;107865;1261;61373;-83
2023/01/30 01:10:21;;;;;;;;;;;;;;;3.07;79.46;100130.27;107648;1256;124613;-82
2023/01/30 01:12:53;;;;;;;;;;;;;;;3.08;79.30;100114.20;107770;1254;61272;-82
2023/01/30 01:15:22;;;;;;;;;;;;;;;3.07;79.23;100113.82;108098;1261;67394;-83
2023/01/30 01:17:48;;;;;;;;;;;;;;;3.06;79.27;100108.73;107299;1257;124830;-83
2023/01/30 01:20:15;;;;;;;;;;;;;;;3.04;79.28;100097.73;107652;1257;61161;-83
2023/01/30 01:22:41;;;;;;;;;;;;;;;3.00;79.25;100084.05;107311;1254;124159;-83
2023/01/30 01:25:08;;;;;;;;;;;;;;;2.98;79.29;100076.00;107681;1254;59493;-83
2023/01/30 01:27:35;;;;;;;;;;;;;;;2.97;79.39;100067.27;107582;1258;65717;-82
2023/01/30 01:30:01;;;;;;;;;;;;;;;2.95;79.29;100061.48;107903;1255;124701;-83
2023/01/30 01:32:27;;;;;;;;;;;;;;;2.93;79.34;100051.15;107723;1260;60999;-83
2023/01/30 01:34:53;;;;;;;;;;;;;;;2.92;79.40;100046.63;107612;1260;124483;-83
2023/01/30 01:37:20;;;;;;;;;;;;;;;2.94;79.46;100044.60;107729;1257;59378;-84
2023/01/30 01:42:34;;;;;;;;;;;;;;;2.97;79.61;100030.18;107607;1257;75819;-82
2023/01/30 01:45:13;;;;;;;;;;;;;;;2.97;79.59;100018.40;108323;1254;60969;-83
2023/01/30 01:47:40;;;;;;;;;;;;;;;2.98;79.64;100014.48;107581;1259;124767;-83
2023/01/30 01:50:10;;;;;;;;;;;;;;;2.99;79.70;100009.65;107641;1254;74578;-83
2023/01/30 01:52:37;;;;;;;;;;;;;;;2.99;79.47;100002.69;107748;1260;125353;-82
2023/01/30 01:55:04;;;;;;;;;;;;;;;2.96;79.44;99999.66;107775;1254;72203;-82
2023/01/30 01:57:35;;;;;;;;;;;;;;;2.98;79.51;99989.65;107921;1256;61070;-83
2023/01/30 02:00:04;;;;;;;;;;;;;;;2.99;79.39;99982.25;108461;1254;124383;-83
2023/01/30 02:02:30;;;;;;;;;;;;;;;3.00;79.43;99979.70;108866;1257;75169;-83
2023/01/30 02:05:03;;;;;;;;;;;;;;;3.03;79.50;99966.46;107537;1258;124481;-83
2023/01/30 02:07:32;;;;;;;;;;;;;;;3.03;79.42;99956.61;107638;1257;73189;-82
2023/01/30 02:09:59;;;;;;;;;;;;;;;3.02;79.38;99948.25;107333;1260;124308;-83
2023/01/30 02:12:25;;;;;;;;;;;;;;;3.00;79.25;99942.24;107565;1257;60759;-83
2023/01/30 02:14:52;;;;;;;;;;;;;;;2.98;79.28;99933.69;107818;1262;60040;-83
2023/01/30 02:17:19;;;;;;;;;;;;;;;2.98;79.40;99921.04;107601;1262;123613;-83
2023/01/30 02:20:03;;;;;;;;;;;;;;;2.95;79.29;99923.86;107767;1254;72671;-82
2023/01/30 02:22:42;;;;;;;;;;;;;;;2.92;79.29;99922.52;107466;1254;124455;-83
2023/01/30 02:25:14;;;;;;;;;;;;;;;2.92;79.33;99917.67;108359;1256;61084;-83
2023/01/30 02:27:59;;;;;;;;;;;;;;;2.90;79.31;99911.00;108960;1257;74137;-83
2023/01/30 02:30:44;;;;;;;;;;;;;;;2.89;79.29;99915.27;108948;1254;66849;-83
2023/01/30 02:33:29;;;;;;;;;;;;;;;2.91;79.40;99912.08;108851;1257;70372;-80
2023/01/30 02:36:00;;;;;;;;;;;;;;;2.93;79.35;99904.02;108757;1254;124931;-80
2023/01/30 02:38:45;;;;;;;;;;;;;;;2.93;79.39;99903.85;108966;1256;60466;-80
2023/01/30 02:41:30;;;;;;;;;;;;;;;2.94;79.42;99894.17;108706;1257;125734;-80
2023/01/30 02:44:04;;;;;;;;;;;;;;;2.97;79.42;99883.73;108819;1254;65965;-80
2023/01/30 02:46:30;;;;;;;;;;;;;;;2.99;79.40;99888.64;108659;1258;124464;-80
2023/01/30 02:48:58;;;;;;;;;;;;;;;2.98;79.36;99882.73;109009;1257;59356;-80
2023/01/30 02:51:28;;;;;;;;;;;;;;;2.99;79.31;99879.67;109049;1256;60010;-80
2023/01/30 02:53:54;;;;;;;;;;;;;;;2.99;79.34;99878.45;108909;1254;124271;-80
2023/01/30 02:56:21;;;;;;;;;;;;;;;3.02;79.31;99880.48;108822;1257;59353;-80
2023/01/30 02:58:48;;;;;;;;;;;;;;;3.03;79.29;99869.95;108787;1254;124039;-80
2023/01/30 03:01:33;;;;;;;;;;;;;;;3.03;79.31;99873.60;108830;1255;59147;-80
2023/01/30 03:04:25;;;;;;;;;;;;;;;3.07;79.31;99863.35;108941;1254;123732;-80
2023/01/30 03:06:54;;;;;;;;;;;;;;;3.08;79.27;99851.60;109013;1254;73752;-80
2023/01/30 03:09:23;;;;;;;;;;;;;;;3.07;79.35;99842.54;108870;1256;66881;-82
2023/01/30 03:12:10;;;;;;;;;;;;;;;3.05;79.26;99833.43;108788;1256;124382;-82
2023/01/30 03:14:51;;;;;;;;;;;;;;;3.03;79.40;99829.23;107506;1260;59762;-83
2023/01/30 03:17:17;;;;;;;;;;;;;;;3.00;79.40;99829.80;107431;1257;125080;-83
2023/01/30 03:19:44;;;;;;;;;;;;;;;2.98;79.40;99814.44;107727;1257;61190;-82
2023/01/30 03:22:10;;;;;;;;;;;;;;;2.94;79.74;99801.98;107541;1257;124372;-83
2023/01/30 03:24:36;;;;;;;;;;;;;;;2.92;79.69;99793.42;107311;1260;61433;-83
2023/01/30 03:27:07;;;;;;;;;;;;;;;2.90;79.86;99790.57;107425;1254;61333;-83
2023/01/30 03:29:33;;;;;;;;;;;;;;;2.90;79.87;99776.52;107628;1256;125037;-80
2023/01/30 03:31:59;;;;;;;;;;;;;;;2.88;79.87;99766.92;107691;1254;61183;-81
2023/01/30 03:34:25;;;;;;;;;;;;;;;2.84;79.72;99757.58;107502;1257;124444;-82
2023/01/30 03:36:52;;;;;;;;;;;;;;;2.81;79.63;99750.52;107496;1254;61304;-83
2023/01/30 03:39:18;;;;;;;;;;;;;;;2.80;79.81;99745.48;107763;1256;60370;-81
2023/01/30 03:41:44;;;;;;;;;;;;;;;2.82;79.82;99744.50;107404;1258;125481;-83
2023/01/30 03:44:11;;;;;;;;;;;;;;;2.84;79.77;99736.44;107805;1260;59593;-81
2023/01/30 03:46:37;;;;;;;;;;;;;;;2.86;79.81;99726.12;107669;1257;124444;-81
2023/01/30 03:49:03;;;;;;;;;;;;;;;2.86;79.67;99723.88;108109;1257;61463;-81
2023/01/30 03:51:30;;;;;;;;;;;;;;;2.88;79.51;99727.22;107690;1257;61346;-81
2023/01/30 03:53:56;;;;;;;;;;;;;;;2.89;79.60;99721.94;107972;1258;124115;-81
2023/01/30 03:56:22;;;;;;;;;;;;;;;2.91;79.47;99712.80;107780;1258;59672;-81
2023/01/30 03:58:51;;;;;;;;;;;;;;;2.91;79.35;99706.41;107469;1257;123792;-81
2023/01/30 04:01:17;;;;;;;;;;;;;;;2.88;79.50;99701.92;107363;1254;59733;-81
2023/01/30 04:03:43;;;;;;;;;;;;;;;2.86;79.45;99700.13;107577;1254;59801;-81
2023/01/30 04:06:10;;;;;;;;;;;;;;;2.84;79.47;99697.61;107245;1254;124249;-82
2023/01/30 04:08:36;;;;;;;;;;;;;;;2.81;79.50;99692.66;107598;1254;59425;-81
2023/01/30 04:11:02;;;;;;;;;;;;;;;2.78;79.56;99686.80;107694;1256;124733;-81
2023/01/30 04:13:28;;;;;;;;;;;;;;;2.75;79.44;99686.54;107775;1254;61148;-81
2023/01/30 04:16:14;;;;;;;;;;;;;;;2.70;79.57;99679.09;107956;1257;124437;-81
2023/01/30 04:18:40;;;;;;;;;;;;;;;2.66;80.90;99675.27;107919;1254;61445;-81
2023/01/30 04:21:06;;;;;;;;;;;;;;;2.64;80.96;99672.27;107697;1256;61014;-81
2023/01/30 04:23:33;;;;;;;;;;;;;;;2.64;80.41;99661.66;108153;1254;124289;-81
2023/01/30 04:25:59;;;;;;;;;;;;;;;2.61;80.27;99655.83;107537;1254;61382;-81
2023/01/30 04:28:25;;;;;;;;;;;;;;;2.58;80.26;99650.70;107536;1260;125250;-81
2023/01/30 04:30:52;;;;;;;;;;;;;;;2.59;80.30;99643.28;107833;1254;59659;-83
2023/01/30 04:33:18;;;;;;;;;;;;;;;2.58;80.25;99633.39;107700;1256;61283;-83
2023/01/30 04:35:55;;;;;;;;;;;;;;;2.60;80.35;99628.44;107583;1257;125100;-83
2023/01/30 04:38:21;;;;;;;;;;;;;;;2.63;80.16;99625.79;107566;1254;71382;-83
2023/01/30 04:40:50;;;;;;;;;;;;;;;2.65;80.21;99625.36;107535;1254;125240;-83
2023/01/30 04:43:17;;;;;;;;;;;;;;;2.66;80.30;99629.21;107616;1261;59698;-83
2023/01/30 04:45:44;;;;;;;;;;;;;;;2.67;80.19;99621.98;107714;1258;75468;-83
2023/01/30 04:48:10;;;;;;;;;;;;;;;2.66;80.14;99614.31;107869;1254;123551;-83
2023/01/30 04:50:39;;;;;;;;;;;;;;;2.65;80.23;99610.12;107448;1257;59819;-83
2023/01/30 04:53:05;;;;;;;;;;;;;;;2.63;80.22;99607.27;107420;1260;123714;-83
2023/01/30 04:55:32;;;;;;;;;;;;;;;2.61;80.27;99595.89;107666;1260;61197;-83
2023/01/30 04:57:58;;;;;;;;;;;;;;;2.59;80.49;99598.78;107572;1256;124871;-82
2023/01/30 05:00:24;;;;;;;;;;;;;;;2.58;80.51;99587.13;107825;1254;59814;-83
2023/01/30 05:02:51;;;;;;;;;;;;;;;2.56;80.51;99582.39;107554;1254;61667;-83
2023/01/30 05:05:17;;;;;;;;;;;;;;;2.55;80.52;99580.98;107745;1254;124401;-84
2023/01/30 05:07:44;;;;;;;;;;;;;;;2.55;80.42;99567.97;107829;1254;59641;-82
2023/01/30 05:10:10;;;;;;;;;;;;;;;2.56;80.51;99559.20;108683;1254;124444;-82
2023/01/30 05:12:36;;;;;;;;;;;;;;;2.58;80.64;99553.36;108824;1255;59581;-83
2023/01/30 05:15:03;;;;;;;;;;;;;;;2.58;80.48;99549.58;108789;1257;59385;-83
2023/01/30 05:18:02;;;;;;;;;;;;;;;2.57;80.59;99537.92;108132;1256;124820;-84
2023/01/30 05:20:28;;;;;;;;;;;;;;;2.56;80.67;99539.61;107820;1254;61061;-81
2023/01/30 05:22:55;;;;;;;;;;;;;;;2.56;80.83;99537.02;107747;1259;125104;-82
2023/01/30 05:25:21;;;;;;;;;;;;;;;2.58;80.68;99531.55;107513;1254;59831;-83
2023/01/30 05:27:47;;;;;;;;;;;;;;;2.57;80.59;99524.08;107448;1257;61306;-84
2023/01/30 05:30:13;;;;;;;;;;;;;;;2.54;80.70;99519.64;107596;1254;124478;-83
2023/01/30 05:32:40;;;;;;;;;;;;;;;2.55;80.80;99519.50;107543;1254;59776;-82
2023/01/30 05:35:06;;;;;;;;;;;;;;;2.57;80.91;99504.33;107668;1257;124288;-82
2023/01/30 05:37:32;;;;;;;;;;;;;;;2.58;80.82;99500.40;107888;1260;61124;-80
2023/01/30 05:39:59;;;;;;;;;;;;;;;2.59;80.67;99490.19;107538;1254;124480;-81
2023/01/30 05:42:25;;;;;;;;;;;;;;;2.58;80.77;99490.85;108359;1256;59343;-81
2023/01/30 05:44:51;;;;;;;;;;;;;;;2.58;80.75;99484.27;108500;1254;61471;-86
2023/01/30 05:47:17;;;;;;;;;;;;;;;2.61;80.78;99472.60;107367;1261;125223;-83
2023/01/30 05:49:44;;;;;;;;;;;;;;;2.61;80.63;99472.96;107676;1256;61390;-84
2023/01/30 05:52:10;;;;;;;;;;;;;;;2.60;80.69;99464.77;107765;1254;124749;-83
2023/01/30 05:54:36;;;;;;;;;;;;;;;2.61;80.58;99476.41;107642;1254;60884;-84
2023/01/30 05:57:02;;;;;;;;;;;;;;;2.63;80.63;99466.11;107582;1253;61343;-82
2023/01/30 05:59:29;;;;;;;;;;;;;;;2.61;80.58;99462.92;107534;1254;125528;-82
2023/01/30 06:01:55;;;;;;;;;;;;;;;2.60;80.51;99462.35;107892;1253;61291;-83
2023/01/30 06:04:21;;;;;;;;;;;;;;;2.60;80.54;99455.95;107834;1254;124605;-81
2023/01/30 06:06:48;;;;;;;;;;;;;;;2.60;80.39;99451.79;107528;1256;59557;-82
2023/01/30 06:09:14;;;;;;;;;;;;;;;2.61;80.43;99452.88;107254;1256;74742;-81
2023/01/30 06:11:41;;;;;;;;;;;;;;;2.61;80.51;99444.55;107240;1256;124306;-83
2023/01/30 06:14:07;;;;;;;;;;;;;;;2.61;80.45;99440.03;107223;1255;61401;-81
2023/01/30 06:16:33;;;;;;;;;;;;;;;2.58;80.45;99435.45;107591;1254;124232;-80
2023/01/30 06:18:59;;;;;;;;;;;;;;;2.56;80.62;99431.02;107902;1254;59619;-80
2023/01/30 06:21:26;;;;;;;;;;;;;;;2.53;80.49;99427.14;107828;1256;61477;-80
2023/01/30 06:23:52;;;;;;;;;;;;;;;2.52;80.67;99431.09;107787;1255;124404;-80
2023/01/30 06:26:18;;;;;;;;;;;;;;;2.51;80.57;99430.35;107891;1254;59795;-81
2023/01/30 06:28:44;;;;;;;;;;;;;;;2.53;80.58;99433.38;107898;1254;124254;-81
2023/01/30 06:31:11;;;;;;;;;;;;;;;2.56;80.78;99429.83;108036;1256;61101;-81
2023/01/30 06:33:37;;;;;;;;;;;;;;;2.58;80.90;99427.98;107477;1260;59309;-82
2023/01/30 06:36:03;;;;;;;;;;;;;;;2.60;80.65;99426.85;107257;1257;124498;-83
2023/01/30 06:38:31;;;;;;;;;;;;;;;2.60;80.78;99425.48;107336;1257;61129;-83
2023/01/30 06:41:01;;;;;;;;;;;;;;;2.62;80.77;99422.79;107275;1254;124471;-85
2023/01/30 06:43:27;;;;;;;;;;;;;;;2.63;80.71;99420.73;107633;1254;59250;-85
2023/01/30 06:45:54;;;;;;;;;;;;;;;2.64;80.67;99414.52;107490;1254;124548;-82
2023/01/30 06:48:20;;;;;;;;;;;;;;;2.64;80.54;99411.07;108465;1257;61288;-83
2023/01/30 06:50:47;;;;;;;;;;;;;;;2.64;80.63;99400.31;107901;1257;59614;-81
2023/01/30 06:53:13;;;;;;;;;;;;;;;2.65;80.71;99401.05;107872;1256;125093;-81
2023/01/30 06:55:39;;;;;;;;;;;;;;;2.68;80.72;99399.95;107757;1254;59801;-81
2023/01/30 06:58:10;;;;;;;;;;;;;;;2.73;80.76;99391.63;107876;1259;124410;-81
2023/01/30 07:00:38;;;;;;;;;;;;;;;2.74;80.49;99389.09;107775;1257;65532;-82
2023/01/30 07:03:05;;;;;;;;;;;;;;;2.73;80.59;99395.10;107950;1254;71465;-82
2023/01/30 07:05:32;;;;;;;;;;;;;;;2.73;80.47;99391.29;107426;1254;124189;-81
2023/01/30 07:07:58;;;;;;;;;;;;;;;2.72;80.53;99386.42;107601;1257;59253;-83
2023/01/30 07:10:25;;;;;;;;;;;;;;;2.75;80.62;99382.86;108927;1254;124320;-82
2023/01/30 07:12:52;;;;;;;;;;;;;;;2.75;80.64;99392.40;109061;1256;59405;-82
2023/01/30 07:15:18;;;;;;;;;;;;;;;2.77;80.56;99392.96;108842;1256;73250;-82
2023/01/30 07:17:44;;;;;;;;;;;;;;;2.77;80.53;99392.63;108982;1254;124051;-82
2023/01/30 07:20:11;;;;;;;;;;;;;;;2.76;80.69;99394.17;109001;1255;59383;-81
2023/01/30 07:22:37;;;;;;;;;;;;;;;2.77;80.67;99383.79;108631;1254;124999;-81
2023/01/30 07:25:03;;;;;;;;;;;;;;;2.77;80.59;99382.39;108781;1254;59538;-83
2023/01/30 07:27:30;;;;;;;;;;;;;;;2.78;80.40;99378.80;108961;1254;59591;-82
2023/01/30 07:29:56;;;;;;;;;;;;;;;2.80;80.69;99375.26;107302;1255;124752;-82
2023/01/30 07:32:22;;;;;;;;;;;;;;;2.84;80.74;99372.08;107443;1254;61231;-85
2023/01/30 07:34:49;;;;;;;;;;;;;;;2.93;80.67;99371.15;107424;1260;125211;-82
2023/01/30 07:37:15;;;;;;;;;;;;;;;2.97;80.57;99378.05;107369;1254;61250;-86
2023/01/30 07:39:45;;;;;;;;;;;;;;;2.97;80.39;99374.60;107288;1257;61304;-87
2023/01/30 07:42:12;;;;;;;;;;;;;;;2.98;80.42;99380.00;107347;1259;124618;-83
2023/01/30 07:44:41;;;;;;;;;;;;;;;3.01;80.55;99371.61;108894;1254;59197;-82
2023/01/30 07:47:14;;;;;;;;;;;;;;;3.06;80.48;99367.42;108392;1256;125384;-81
2023/01/30 07:49:42;;;;;;;;;;;;;;;3.09;80.44;99367.36;107542;1258;67058;-82
2023/01/30 07:52:09;;;;;;;;;;;;;;;3.13;80.58;99368.52;107526;1254;124548;-82
2023/01/30 07:54:38;;;;;;;;;;;;;;;3.16;80.42;99377.45;108750;1255;59781;-81
2023/01/30 07:57:07;;;;;;;;;;;;;;;3.20;80.53;99382.28;108816;1254;60445;-81
2023/01/30 07:59:35;;;;;;;;;;;;;;;3.24;80.37;99388.65;108533;1254;125285;-81
2023/01/30 08:02:02;;;;;;;;;;;;;;;3.29;80.43;99395.06;108872;1254;66071;-81
2023/01/30 08:04:29;;;;;;;;;;;;;;;3.34;80.29;99392.59;107708;1257;124409;-82
2023/01/30 08:06:57;;;;;;;;;;;;;;;3.38;80.23;99384.05;107835;1254;61418;-81
2023/01/30 08:09:29;;;;;;;;;;;;;;;3.42;80.17;99387.48;107779;1254;59484;-81
2023/01/30 08:12:01;;;;;;;;;;;;;;;3.47;80.26;99380.19;107780;1259;123574;-82
2023/01/30 08:14:31;;;;;;;;;;;;;;;3.55;80.24;99378.02;108082;1254;67185;-81
2023/01/30 08:17:01;;;;;;;;;;;;;;;3.62;80.16;99369.88;108903;1254;124223;-81
2023/01/30 08:19:29;;;;;;;;;;;;;;;3.69;80.25;99366.45;109055;1254;59325;-83
2023/01/30 08:21:55;;;;;;;;;;;;;;;3.77;80.08;99361.67;108790;1256;123672;-81
2023/01/30 08:24:21;;;;;;;;;;;;;;;3.83;80.03;99366.36;108299;1257;59304;-81
2023/01/30 08:26:48;;;;;;;;;;;;;;;3.89;79.98;99362.55;107705;1254;59611;-83
2023/01/30 08:29:15;;;;;;;;;;;;;;;3.92;79.83;99362.64;107669;1254;124224;-81
2023/01/30 08:31:41;;;;;;;;;;;;;;;3.92;79.70;99367.84;107882;1254;61198;-81
2023/01/30 08:34:08;;;;;;;;;;;;;;;3.94;79.69;99369.28;107610;1257;124897;-80
2023/01/30 08:36:34;;;;;;;;;;;;;;;3.95;79.72;99368.27;107651;1256;59817;-83
2023/01/30 08:39:01;;;;;;;;;;;;;;;3.95;79.60;99364.65;107588;1256;66020;-80
2023/01/30 08:41:28;;;;;;;;;;;;;;;3.93;79.61;99359.87;107759;1259;124972;-81
2023/01/30 08:43:55;;;;;;;;;;;;;;;3.92;79.51;99360.37;107746;1254;61186;-82
2023/01/30 08:46:21;;;;;;;;;;;;;;;3.91;79.50;99360.34;108867;1254;124902;-82
2023/01/30 08:48:47;;;;;;;;;;;;;;;3.93;79.59;99353.10;109028;1256;59259;-82
2023/01/30 08:51:14;;;;;;;;;;;;;;;3.98;79.71;99351.16;108296;1257;61212;-85
2023/01/30 08:53:40;;;;;;;;;;;;;;;4.03;79.59;99349.77;107813;1259;124744;-81
2023/01/30 08:56:07;;;;;;;;;;;;;;;4.11;79.67;99337.30;107603;1256;61293;-83
2023/01/30 08:58:33;;;;;;;;;;;;;;;4.13;79.44;99336.46;107707;1259;124551;-81
2023/01/30 09:01:03;;;;;;;;;;;;;;;4.13;79.47;99329.90;108054;1255;61374;-83
2023/01/30 09:03:30;;;;;;;;;;;;;;;4.15;79.41;99335.31;107893;1254;65762;-83
2023/01/30 09:05:56;;;;;;;;;;;;;;;4.21;79.42;99336.36;107686;1254;123851;-91
2023/01/30 09:08:23;;;;;;;;;;;;;;;4.28;79.42;99341.94;107578;1254;61310;-81
2023/01/30 09:10:49;;;;;;;;;;;;;;;4.33;79.27;99329.57;107325;1257;124327;-82
2023/01/30 09:13:18;;;;;;;;;;;;;;;4.39;79.42;99322.27;107368;1256;74551;-81
2023/01/30 09:15:44;;;;;;;;;;;;;;;4.44;79.40;99322.59;107597;1254;66837;-82
2023/01/30 09:18:11;;;;;;;;;;;;;;;4.48;79.32;99321.11;107659;1256;124301;-83
2023/01/30 09:20:38;;;;;;;;;;;;;;;4.47;79.12;99316.06;107713;1256;61274;-84
2023/01/30 09:23:04;;;;;;;;;;;;;;;4.46;78.99;99312.39;108561;1255;124705;-82
2023/01/30 09:25:31;;;;;;;;;;;;;;;4.59;79.17;99296.39;107793;1254;74775;-84
2023/01/30 09:27:58;;;;;;;;;;;;;;;4.69;79.07;99292.98;107244;1257;124598;-82
2023/01/30 09:30:25;;;;;;;;;;;;;;;4.73;78.87;99293.77;107730;1254;71558;-82
2023/01/30 09:32:51;;;;;;;;;;;;;;;4.75;78.85;99296.61;107601;1254;59367;-83
2023/01/30 09:35:21;;;;;;;;;;;;;;;4.79;78.97;99294.27;109040;1254;124454;-84
2023/01/30 09:37:48;;;;;;;;;;;;;;;4.81;78.80;99286.86;107404;1254;74991;-83
2023/01/30 09:40:16;;;;;;;;;;;;;;;4.91;78.97;99280.50;107655;1255;124898;-83
2023/01/30 09:42:47;;;;;;;;;;;;;;;5.04;78.93;99282.52;107739;1257;73471;-83
2023/01/30 09:45:28;;;;;;;;;;;;;;;5.10;78.66;99272.40;107654;1254;61257;-83
2023/01/30 09:48:02;;;;;;;;;;;;;;;5.15;78.56;99267.65;107311;1256;282869;-83
2023/01/30 09:50:36;;;;;;;;;;;;;;;5.27;78.59;99269.67;107420;1257;74535;-84
2023/01/30 09:53:07;;;;;;;;;;;;;;;5.47;78.81;99266.98;107563;1256;125236;-83
2023/01/30 09:55:36;;;;;;;;;;;;;;;5.59;78.46;99266.36;107654;1259;71132;-84
2023/01/30 09:58:02;;;;;;;;;;;;;;;5.69;78.63;99259.60;108937;1254;123933;-83
2023/01/30 10:00:35;;;;;;;;;;;;;;;5.80;78.37;99260.71;108855;1254;59514;-83
2023/01/30 10:03:07;;;;;;;;;;;;;;;5.90;78.16;99261.41;109080;1254;75270;-83
2023/01/30 10:05:35;;;;;;;;;;;;;;;6.02;78.09;99268.65;108990;1254;123806;-84
2023/01/30 10:08:18;;;;;;;;;;;;;;;6.11;77.82;99272.48;108380;1254;71238;-84
2023/01/30 10:10:48;;;;;;;;;;;;;;;6.14;77.79;99273.41;107634;1256;124348;-83
2023/01/30 10:13:21;;;;;;;;;;;;;;;6.27;77.84;99279.04;107843;1254;61164;-84
2023/01/30 10:15:50;;;;;;;;;;;;;;;6.27;77.42;99271.21;107902;1256;75227;-84
2023/01/30 10:18:26;;;;;;;;;;;;;;;6.21;77.09;99265.34;107274;1257;127427;-83
2023/01/30 10:21:09;;;;;;;;;;;;;;;6.08;76.85;99263.54;107572;1258;71929;-84
2023/01/30 10:23:40;;;;;;;;;;;;;;;6.03;76.99;99253.86;107507;1257;125049;-83
2023/01/30 10:26:07;;;;;;;;;;;;;;;6.04;77.11;99251.45;107526;1254;59662;-83
2023/01/30 10:28:45;;;;;;;;;;;;;;;6.10;76.98;99253.83;107300;1254;124864;-83
2023/01/30 10:31:13;;;;;;;;;;;;;;;6.11;76.76;99247.74;107215;1254;66828;-83
2023/01/30 10:33:44;;;;;;;;;;;;;;;6.11;76.81;99250.55;107352;1256;71547;-83
2023/01/30 10:36:14;;;;;;;;;;;;;;;6.19;76.99;99249.64;107155;1260;124032;-83
2023/01/30 10:38:47;;;;;;;;;;;;;;;6.31;77.02;99255.27;107332;1256;59762;-83
2023/01/30 10:41:25;;;;;;;;;;;;;;;6.51;77.18;99251.95;107200;1255;123780;-83
2023/01/30 10:43:53;;;;;;;;;;;;;;;6.67;76.97;99247.87;107682;1260;66907;-83
2023/01/30 10:46:35;;;;;;;;;;;;;;;6.74;76.77;99249.38;107448;1258;123768;-83
2023/01/30 10:49:24;;;;;;;;;;;;;;;6.72;76.51;99247.23;107330;1260;62115;-83
2023/01/30 10:51:54;;;;;;;;;;;;;;;6.61;76.39;99243.05;107355;1256;61267;-83
2023/01/30 10:54:40;;;;;;;;;;;;;;;6.49;76.27;99237.80;108768;1256;74974;-83
2023/01/30 10:57:09;;;;;;;;;;;;;;;6.34;76.40;99244.86;108060;1254;66917;-83
2023/01/30 10:59:49;;;;;;;;;;;;;;;6.18;76.21;99238.31;107381;1254;124859;-83
2023/01/30 11:02:23;;;;;;;;;;;;;;;6.00;76.16;99230.30;107375;1254;61190;-83
2023/01/30 11:04:57;;;;;;;;;;;;;;;5.94;76.50;99229.80;107275;1260;125111;-83
2023/01/30 11:07:28;;;;;;;;;;;;;;;5.96;76.74;99219.93;107746;1259;74738;-83
2023/01/30 11:09:55;;;;;;;;;;;;;;;6.00;76.88;99218.82;107127;1256;65872;-83
2023/01/30 11:12:22;;;;;;;;;;;;;;;6.07;77.06;99214.95;107150;1256;73324;-83
2023/01/30 11:14:52;;;;;;;;;;;;;;;6.23;77.24;99214.00;107327;1255;61221;-83
2023/01/30 11:17:19;;;;;;;;;;;;;;;6.35;77.01;99208.98;107391;1256;124428;-83
2023/01/30 11:20:15;;;;;;;;;;;;;;;6.33;76.64;99206.34;107464;1255;74816;-84
2023/01/30 11:22:44;;;;;;;;;;;;;;;6.23;76.31;99202.16;107799;1256;124332;-84
2023/01/30 11:25:13;;;;;;;;;;;;;;;6.11;76.29;99194.98;107271;1254;71378;-83
2023/01/30 11:27:40;;;;;;;;;;;;;;;5.94;76.19;99198.50;107463;1254;61334;-83
2023/01/30 11:30:13;;;;;;;;;;;;;;;5.84;76.56;99183.84;107781;1254;123858;-83
2023/01/30 11:32:43;;;;;;;;;;;;;;;5.86;76.76;99179.18;108209;1256;73861;-83
2023/01/30 11:35:12;;;;;;;;;;;;;;;5.90;76.90;99180.63;107239;1257;124737;-84
2023/01/30 11:37:40;;;;;;;;;;;;;;;5.95;76.89;99179.16;107256;1257;72714;-83
2023/01/30 11:40:22;;;;;;;;;;;;;;;5.99;76.95;99182.58;107218;1260;125369;-84
2023/01/30 11:42:49;;;;;;;;;;;;;;;6.16;77.27;99183.05;107257;1254;61366;-84
2023/01/30 11:45:16;;;;;;;;;;;;;;;6.38;77.23;99173.51;107245;1258;75127;-84
2023/01/30 11:47:50;;;;;;;;;;;;;;;6.48;76.72;99170.86;107865;1254;125246;-84
2023/01/30 11:50:16;;;;;;;;;;;;;;;6.45;76.29;99173.77;108922;1256;71107;-84
2023/01/30 11:52:43;;;;;;;;;;;;;;;6.29;75.85;99172.66;109070;1255;124015;-83
2023/01/30 11:55:11;;;;;;;;;;;;;;;6.09;75.57;99169.86;109146;1254;60006;-84
2023/01/30 11:57:37;;;;;;;;;;;;;;;5.93;75.72;99163.30;107706;1257;74719;-83
2023/01/30 12:00:04;;;;;;;;;;;;;;;5.85;76.00;99159.13;107546;1256;124015;-83
2023/01/30 12:02:31;;;;;;;;;;;;;;;5.82;76.16;99152.99;107460;1257;71752;-83
2023/01/30 12:04:59;;;;;;;;;;;;;;;5.76;76.14;99140.70;107088;1256;123593;-83
2023/01/30 12:07:27;;;;;;;;;;;;;;;5.73;76.29;99134.73;107433;1255;61250;-83
2023/01/30 12:09:54;;;;;;;;;;;;;;;5.65;76.19;99127.44;107533;1253;72749;-83
2023/01/30 12:12:28;;;;;;;;;;;;;;;5.54;76.30;99126.02;108361;1257;123643;-83
2023/01/30 12:15:04;;;;;;;;;;;;;;;5.46;76.43;99121.70;108310;1256;71935;-83
2023/01/30 12:18:12;;;;;;;;;;;;;;;5.45;76.50;99114.52;107297;1256;124861;-83
2023/01/30 12:20:55;;;;;;;;;;;;;;;5.42;76.68;99116.22;108525;1260;60660;-83
2023/01/30 12:23:40;;;;;;;;;;;;;;;5.45;76.89;99123.23;108578;1262;124191;-83
2023/01/30 12:26:12;;;;;;;;;;;;;;;5.55;76.99;99124.47;107585;1257;65774;-83
2023/01/30 12:28:41;;;;;;;;;;;;;;;5.59;76.89;99127.67;107014;1256;124840;-83
2023/01/30 12:31:10;;;;;;;;;;;;;;;5.59;76.68;99131.66;107606;1256;61128;-83
2023/01/30 12:33:38;;;;;;;;;;;;;;;5.58;76.65;99125.91;107527;1257;61193;-83
2023/01/30 12:36:24;;;;;;;;;;;;;;;5.65;76.99;99129.52;109011;1256;123996;-83
2023/01/30 12:38:54;;;;;;;;;;;;;;;5.82;77.24;99137.31;109131;1257;66906;-83
2023/01/30 12:41:41;;;;;;;;;;;;;;;5.92;77.18;99143.60;108916;1257;123846;-83
2023/01/30 12:44:26;;;;;;;;;;;;;;;5.93;77.09;99137.70;107941;1257;59214;-83
2023/01/30 12:47:02;;;;;;;;;;;;;;;5.96;76.96;99137.95;107901;1256;124345;-83
2023/01/30 12:49:41;;;;;;;;;;;;;;;6.03;77.10;99141.39;107788;1256;73617;-83
2023/01/30 12:52:35;;;;;;;;;;;;;;;6.04;76.84;99140.88;107767;1259;126070;-83
2023/01/30 12:55:20;;;;;;;;;;;;;;;5.96;76.76;99135.33;107643;1257;72811;-83
2023/01/30 12:57:52;;;;;;;;;;;;;;;5.90;76.64;99134.52;108278;1255;59760;-83
2023/01/30 13:00:28;;;;;;;;;;;;;;;5.83;76.55;99133.17;107660;1259;125040;-83